sensor_id;sensor_type;location;lat;lon;timestamp;pressure;altitude;pressure_sealevel;temperature;humidity
26563;BME280;14217;50.986;5.826;2023-02-19T00:01:44;101301.41;;;19.15;48.43
26563;BME280;14217;50.986;5.826;2023-02-19T00:06:47;101298.69;;;19.16;48.50
26563;BME280;14217;50.986;5.826;2023-02-19T00:11:50;101289.59;;;19.22;48.20
26563;BME280;14217;50.986;5.826;2023-02-19T00:16:52;101290.72;;;19.16;48.63
26563;BME280;14217;50.986;5.826;2023-02-19T00:21:54;101286.34;;;19.15;48.28
26563;BME280;14217;50.986;5.826;2023-02-19T00:26:56;101276.56;;;19.16;48.41
26563;BME280;14217;50.986;5.826;2023-02-19T00:31:58;101279.38;;;19.13;48.72
26563;BME280;14217;50.986;5.826;2023-02-19T00:37:00;101284.53;;;19.16;48.42
26563;BME280;14217;50.986;5.826;2023-02-19T00:42:02;101285.41;;;19.16;48.61
26563;BME280;14217;50.986;5.826;2023-02-19T00:47:04;101273.38;;;19.29;49.36
26563;BME280;14217;50.986;5.826;2023-02-19T00:52:06;101267.19;;;19.29;50.51
26563;BME280;14217;50.986;5.826;2023-02-19T00:57:08;101267.06;;;19.32;49.30
26563;BME280;14217;50.986;5.826;2023-02-19T01:02:10;101276.28;;;19.23;49.97
26563;BME280;14217;50.986;5.826;2023-02-19T01:07:12;101259.63;;;19.18;49.40
26563;BME280;14217;50.986;5.826;2023-02-19T01:12:14;101260.59;;;19.17;49.62
26563;BME280;14217;50.986;5.826;2023-02-19T01:17:15;101256.97;;;19.18;49.71
26563;BME280;14217;50.986;5.826;2023-02-19T01:22:17;101264.94;;;19.18;49.32
26563;BME280;14217;50.986;5.826;2023-02-19T01:27:19;101268.34;;;19.22;49.18
26563;BME280;14217;50.986;5.826;2023-02-19T01:32:21;101272.06;;;19.18;49.49
26563;BME280;14217;50.986;5.826;2023-02-19T01:37:23;101280.78;;;19.21;49.08
26563;BME280;14217;50.986;5.826;2023-02-19T01:42:25;101279.03;;;19.20;48.92
26563;BME280;14217;50.986;5.826;2023-02-19T01:47:27;101279.19;;;19.17;49.13
26563;BME280;14217;50.986;5.826;2023-02-19T01:52:33;101289.03;;;19.14;49.17
26563;BME280;14217;50.986;5.826;2023-02-19T01:57:40;101284.44;;;19.19;49.05
26563;BME280;14217;50.986;5.826;2023-02-19T02:02:47;101286.19;;;19.18;48.96
26563;BME280;14217;50.986;5.826;2023-02-19T02:07:50;101291.47;;;19.20;48.99
26563;BME280;14217;50.986;5.826;2023-02-19T02:13:11;101286.28;;;19.17;49.04
26563;BME280;14217;50.986;5.826;2023-02-19T02:18:20;101291.50;;;19.18;48.75
26563;BME280;14217;50.986;5.826;2023-02-19T02:29:04;101277.38;;;19.18;48.59
26563;BME280;14217;50.986;5.826;2023-02-19T02:34:17;101278.31;;;19.17;48.67
26563;BME280;14217;50.986;5.826;2023-02-19T02:39:23;101295.13;;;19.17;48.47
26563;BME280;14217;50.986;5.826;2023-02-19T02:44:33;101300.44;;;19.17;48.79
26563;BME280;14217;50.986;5.826;2023-02-19T02:49:36;101294.25;;;19.17;48.31
26563;BME280;14217;50.986;5.826;2023-02-19T02:54:58;101297.78;;;19.17;48.28
26563;BME280;14217;50.986;5.826;2023-02-19T03:00:06;101296.91;;;19.17;48.41
26563;BME280;14217;50.986;5.826;2023-02-19T03:05:12;101310.09;;;19.18;48.57
26563;BME280;14217;50.986;5.826;2023-02-19T03:10:49;101310.91;;;19.20;48.41
26563;BME280;14217;50.986;5.826;2023-02-19T03:15:57;101314.56;;;19.18;48.06
26563;BME280;14217;50.986;5.826;2023-02-19T03:21:21;101321.72;;;19.16;48.09
26563;BME280;14217;50.986;5.826;2023-02-19T03:26:25;101315.56;;;19.15;48.15
26563;BME280;14217;50.986;5.826;2023-02-19T03:31:28;101319.03;;;19.17;48.05
26563;BME280;14217;50.986;5.826;2023-02-19T03:36:38;101324.19;;;19.20;47.87
26563;BME280;14217;50.986;5.826;2023-02-19T03:47:04;101322.47;;;19.19;47.90
26563;BME280;14217;50.986;5.826;2023-02-19T04:08:03;101360.59;;;19.18;47.85
26563;BME280;14217;50.986;5.826;2023-02-19T04:13:14;101362.28;;;19.21;47.93
26563;BME280;14217;50.986;5.826;2023-02-19T04:18:21;101370.31;;;19.19;47.88
26563;BME280;14217;50.986;5.826;2023-02-19T04:23:27;101377.28;;;19.22;47.92
26563;BME280;14217;50.986;5.826;2023-02-19T04:28:30;101383.59;;;19.19;47.65
26563;BME280;14217;50.986;5.826;2023-02-19T04:33:33;101380.78;;;19.22;47.95
26563;BME280;14217;50.986;5.826;2023-02-19T04:38:35;101388.84;;;19.21;47.79
26563;BME280;14217;50.986;5.826;2023-02-19T04:43:40;101392.41;;;19.20;47.65
26563;BME280;14217;50.986;5.826;2023-02-19T04:48:43;101395.91;;;19.20;47.54
26563;BME280;14217;50.986;5.826;2023-02-19T04:53:45;101406.56;;;19.20;47.87
26563;BME280;14217;50.986;5.826;2023-02-19T04:58:47;101415.41;;;19.21;47.52
26563;BME280;14217;50.986;5.826;2023-02-19T05:03:49;101424.34;;;19.18;47.73
26563;BME280;14217;50.986;5.826;2023-02-19T05:08:50;101428.78;;;19.18;47.78
26563;BME280;14217;50.986;5.826;2023-02-19T05:13:54;101432.22;;;19.21;47.48
26563;BME280;14217;50.986;5.826;2023-02-19T05:18:56;101446.31;;;19.23;47.39
26563;BME280;14217;50.986;5.826;2023-02-19T05:23:58;101441.00;;;19.23;47.45
26563;BME280;14217;50.986;5.826;2023-02-19T05:29:01;101444.56;;;19.22;47.42
26563;BME280;14217;50.986;5.826;2023-02-19T05:34:03;101445.53;;;19.20;47.48
26563;BME280;14217;50.986;5.826;2023-02-19T05:39:05;101460.63;;;19.19;47.56
26563;BME280;14217;50.986;5.826;2023-02-19T05:44:09;101460.56;;;19.21;47.71
26563;BME280;14217;50.986;5.826;2023-02-19T05:49:11;101466.69;;;19.23;47.36
26563;BME280;14217;50.986;5.826;2023-02-19T05:54:13;101472.09;;;19.20;47.78
26563;BME280;14217;50.986;5.826;2023-02-19T05:59:20;101478.28;;;19.20;47.42
26563;BME280;14217;50.986;5.826;2023-02-19T06:04:22;101472.00;;;19.23;47.55
26563;BME280;14217;50.986;5.826;2023-02-19T06:09:24;101479.09;;;19.22;47.35
26563;BME280;14217;50.986;5.826;2023-02-19T06:14:26;101475.63;;;19.20;47.51
26563;BME280;14217;50.986;5.826;2023-02-19T06:19:28;101479.22;;;19.19;47.68
26563;BME280;14217;50.986;5.826;2023-02-19T06:24:30;101488.91;;;19.20;47.44
26563;BME280;14217;50.986;5.826;2023-02-19T06:29:32;101485.34;;;19.21;47.26
26563;BME280;14217;50.986;5.826;2023-02-19T06:34:34;101495.03;;;19.22;47.31
26563;BME280;14217;50.986;5.826;2023-02-19T06:39:37;101503.00;;;19.22;47.53
26563;BME280;14217;50.986;5.826;2023-02-19T06:44:39;101496.81;;;19.22;47.41
26563;BME280;14217;50.986;5.826;2023-02-19T06:49:41;101514.44;;;19.24;47.51
26563;BME280;14217;50.986;5.826;2023-02-19T06:54:43;101518.94;;;19.22;47.33
26563;BME280;14217;50.986;5.826;2023-02-19T06:59:45;101524.25;;;19.22;47.48
26563;BME280;14217;50.986;5.826;2023-02-19T07:04:47;101540.16;;;19.24;47.45
26563;BME280;14217;50.986;5.826;2023-02-19T07:09:49;101542.03;;;19.20;47.50
26563;BME280;14217;50.986;5.826;2023-02-19T07:14:50;101540.19;;;19.22;47.21
26563;BME280;14217;50.986;5.826;2023-02-19T07:19:52;101557.88;;;19.23;47.43
26563;BME280;14217;50.986;5.826;2023-02-19T07:24:54;101559.72;;;19.21;47.10
26563;BME280;14217;50.986;5.826;2023-02-19T07:29:56;101572.06;;;19.22;47.27
26563;BME280;14217;50.986;5.826;2023-02-19T07:34:59;101571.22;;;19.22;47.10
26563;BME280;14217;50.986;5.826;2023-02-19T07:40:02;101576.47;;;19.23;47.04
26563;BME280;14217;50.986;5.826;2023-02-19T07:45:04;101587.13;;;19.23;47.11
26563;BME280;14217;50.986;5.826;2023-02-19T07:50:06;101594.09;;;19.26;47.24
26563;BME280;14217;50.986;5.826;2023-02-19T07:55:08;101599.53;;;19.23;47.26
26563;BME280;14217;50.986;5.826;2023-02-19T08:00:10;101603.16;;;19.20;47.32
26563;BME280;14217;50.986;5.826;2023-02-19T08:05:12;101619.97;;;19.21;47.02
26563;BME280;14217;50.986;5.826;2023-02-19T08:10:14;101623.53;;;19.20;47.09
26563;BME280;14217;50.986;5.826;2023-02-19T08:15:35;101633.31;;;19.19;47.17
26563;BME280;14217;50.986;5.826;2023-02-19T08:20:37;101641.22;;;19.21;47.29
26563;BME280;14217;50.986;5.826;2023-02-19T08:25:40;101643.81;;;19.22;47.22
26563;BME280;14217;50.986;5.826;2023-02-19T08:30:44;101666.00;;;19.21;47.27
26563;BME280;14217;50.986;5.826;2023-02-19T08:35:47;101676.44;;;19.27;46.98
26563;BME280;14217;50.986;5.826;2023-02-19T08:40:48;101682.56;;;19.29;47.16
26563;BME280;14217;50.986;5.826;2023-02-19T08:45:52;101692.56;;;19.21;47.34
26563;BME280;14217;50.986;5.826;2023-02-19T08:50:56;101691.50;;;19.27;46.88
26563;BME280;14217;50.986;5.826;2023-02-19T08:56:03;101695.94;;;19.26;46.92
26563;BME280;14217;50.986;5.826;2023-02-19T09:01:10;101695.94;;;19.26;47.27
26563;BME280;14217;50.986;5.826;2023-02-19T09:06:16;101703.09;;;19.24;47.03
26563;BME280;14217;50.986;5.826;2023-02-19T09:11:18;101703.59;;;19.09;48.00
26563;BME280;14217;50.986;5.826;2023-02-19T09:16:20;101711.41;;;19.14;48.09
26563;BME280;14217;50.986;5.826;2023-02-19T09:21:23;101715.75;;;19.16;48.11
26563;BME280;14217;50.986;5.826;2023-02-19T09:26:25;101721.06;;;19.16;48.32
26563;BME280;14217;50.986;5.826;2023-02-19T09:31:27;101731.81;;;19.13;53.68
26563;BME280;14217;50.986;5.826;2023-02-19T09:36:29;101734.03;;;19.27;49.68
26563;BME280;14217;50.986;5.826;2023-02-19T09:41:36;101727.72;;;19.29;50.41
26563;BME280;14217;50.986;5.826;2023-02-19T09:46:42;101728.63;;;19.28;50.37
26563;BME280;14217;50.986;5.826;2023-02-19T09:51:52;101711.00;;;19.26;49.21
26563;BME280;14217;50.986;5.826;2023-02-19T09:56:57;101729.59;;;19.26;48.75
26563;BME280;14217;50.986;5.826;2023-02-19T10:02:04;101732.19;;;19.29;48.87
26563;BME280;14217;50.986;5.826;2023-02-19T10:07:38;101742.94;;;19.24;48.81
26563;BME280;14217;50.986;5.826;2023-02-19T10:12:49;101750.91;;;19.24;48.39
26563;BME280;14217;50.986;5.826;2023-02-19T10:17:51;101772.84;;;19.31;48.22
26563;BME280;14217;50.986;5.826;2023-02-19T10:23:01;101788.88;;;19.28;48.38
26563;BME280;14217;50.986;5.826;2023-02-19T10:28:05;101795.19;;;19.25;49.29
26563;BME280;14217;50.986;5.826;2023-02-19T10:33:14;101802.28;;;19.25;49.29
26563;BME280;14217;50.986;5.826;2023-02-19T10:38:18;101802.41;;;19.20;49.63
26563;BME280;14217;50.986;5.826;2023-02-19T10:43:24;101813.00;;;19.22;49.20
26563;BME280;14217;50.986;5.826;2023-02-19T10:48:36;101820.00;;;19.24;49.21
26563;BME280;14217;50.986;5.826;2023-02-19T10:53:47;101833.34;;;19.23;49.17
26563;BME280;14217;50.986;5.826;2023-02-19T10:58:50;101850.16;;;19.23;49.16
26563;BME280;14217;50.986;5.826;2023-02-19T11:04:15;101850.25;;;19.20;48.99
26563;BME280;14217;50.986;5.826;2023-02-19T11:09:28;101855.47;;;19.23;49.00
26563;BME280;14217;50.986;5.826;2023-02-19T11:14:32;101866.97;;;19.24;48.98
26563;BME280;14217;50.986;5.826;2023-02-19T11:19:44;101869.13;;;19.39;48.87
26563;BME280;14217;50.986;5.826;2023-02-19T11:24:50;101851.59;;;19.34;48.72
26563;BME280;14217;50.986;5.826;2023-02-19T11:35:34;101845.56;;;19.28;48.71
26563;BME280;14217;50.986;5.826;2023-02-19T11:40:51;101841.06;;;19.30;49.08
26563;BME280;14217;50.986;5.826;2023-02-19T11:46:18;101845.56;;;19.28;49.12
26563;BME280;14217;50.986;5.826;2023-02-19T11:51:42;101835.06;;;19.24;50.16
26563;BME280;14217;50.986;5.826;2023-02-19T11:57:08;101845.03;;;19.17;50.18
26563;BME280;14217;50.986;5.826;2023-02-19T12:02:26;101842.41;;;19.16;49.71
26563;BME280;14217;50.986;5.826;2023-02-19T12:34:59;101822.47;;;19.02;48.82
26563;BME280;14217;50.986;5.826;2023-02-19T12:40:14;101815.97;;;19.13;48.42
26563;BME280;14217;50.986;5.826;2023-02-19T12:45:30;101828.38;;;19.12;48.85
26563;BME280;14217;50.986;5.826;2023-02-19T12:50:35;101831.72;;;19.19;48.31
26563;BME280;14217;50.986;5.826;2023-02-19T12:55:42;101831.63;;;19.20;48.30
26563;BME280;14217;50.986;5.826;2023-02-19T13:00:51;101829.94;;;19.18;48.37
26563;BME280;14217;50.986;5.826;2023-02-19T13:06:00;101843.16;;;19.21;48.18
26563;BME280;14217;50.986;5.826;2023-02-19T13:11:18;101844.09;;;19.18;48.25
26563;BME280;14217;50.986;5.826;2023-02-19T13:16:23;101840.50;;;19.21;47.94
26563;BME280;14217;50.986;5.826;2023-02-19T13:21:29;101850.25;;;19.20;47.74
26563;BME280;14217;50.986;5.826;2023-02-19T13:37:05;101850.19;;;19.22;47.57
26563;BME280;14217;50.986;5.826;2023-02-19T13:42:23;101852.00;;;19.21;47.48
26563;BME280;14217;50.986;5.826;2023-02-19T13:52:46;101852.81;;;19.23;47.43
26563;BME280;14217;50.986;5.826;2023-02-19T13:57:48;101859.94;;;19.23;47.52
26563;BME280;14217;50.986;5.826;2023-02-19T14:08:49;101874.97;;;19.22;47.13
26563;BME280;14217;50.986;5.826;2023-02-19T14:18:55;101898.84;;;19.24;47.14
26563;BME280;14217;50.986;5.826;2023-02-19T14:23:57;101903.28;;;19.23;47.22
26563;BME280;14217;50.986;5.826;2023-02-19T14:29:01;101901.63;;;19.21;47.23
26563;BME280;14217;50.986;5.826;2023-02-19T14:39:19;101928.13;;;19.22;47.02
26563;BME280;14217;50.986;5.826;2023-02-19T14:44:29;101929.00;;;19.23;47.16
26563;BME280;14217;50.986;5.826;2023-02-19T14:49:40;101932.53;;;19.23;47.14
26563;BME280;14217;50.986;5.826;2023-02-19T14:54:57;101936.16;;;19.21;47.00
26563;BME280;14217;50.986;5.826;2023-02-19T15:05:27;101928.94;;;19.24;46.92
26563;BME280;14217;50.986;5.826;2023-02-19T15:10:31;101930.84;;;19.21;47.00
26563;BME280;14217;50.986;5.826;2023-02-19T15:15:39;101928.13;;;19.22;46.82
26563;BME280;14217;50.986;5.826;2023-02-19T15:20:44;101916.59;;;19.23;46.72
26563;BME280;14217;50.986;5.826;2023-02-19T15:25:47;101917.56;;;19.21;46.76
26563;BME280;14217;50.986;5.826;2023-02-19T15:36:10;101898.84;;;19.24;47.05
26563;BME280;14217;50.986;5.826;2023-02-19T15:41:18;101898.84;;;19.24;47.02
26563;BME280;14217;50.986;5.826;2023-02-19T15:46:23;101894.50;;;19.21;47.25
26563;BME280;14217;50.986;5.826;2023-02-19T15:56:39;101872.47;;;19.18;47.84
26563;BME280;14217;50.986;5.826;2023-02-19T16:01:43;101886.56;;;19.20;47.91
26563;BME280;14217;50.986;5.826;2023-02-19T16:07:04;101897.13;;;19.23;47.88
26563;BME280;14217;50.986;5.826;2023-02-19T16:12:22;101902.44;;;19.23;47.75
26563;BME280;14217;50.986;5.826;2023-02-19T16:17:25;101915.56;;;19.27;47.69
26563;BME280;14217;50.986;5.826;2023-02-19T16:22:32;101925.38;;;19.25;47.74
26563;BME280;14217;50.986;5.826;2023-02-19T16:27:37;101937.81;;;19.25;47.71
26563;BME280;14217;50.986;5.826;2023-02-19T16:32:40;101952.75;;;19.29;47.82
26563;BME280;14217;50.986;5.826;2023-02-19T16:37:56;101961.66;;;19.26;47.63
26563;BME280;14217;50.986;5.826;2023-02-19T16:48:16;101957.16;;;19.28;47.64
26563;BME280;14217;50.986;5.826;2023-02-19T16:53:21;101955.47;;;19.26;47.69
26563;BME280;14217;50.986;5.826;2023-02-19T16:58:25;101966.97;;;19.26;47.55
26563;BME280;14217;50.986;5.826;2023-02-19T17:03:27;101974.00;;;19.29;47.14
26563;BME280;14217;50.986;5.826;2023-02-19T17:08:35;101990.06;;;19.24;47.41
26563;BME280;14217;50.986;5.826;2023-02-19T17:13:39;101999.00;;;19.22;47.48
26563;BME280;14217;50.986;5.826;2023-02-19T17:18:41;102010.38;;;19.27;47.29
26563;BME280;14217;50.986;5.826;2023-02-19T17:23:43;102016.56;;;19.27;47.25
26563;BME280;14217;50.986;5.826;2023-02-19T17:28:45;102021.03;;;19.25;47.32
26563;BME280;14217;50.986;5.826;2023-02-19T17:33:47;102013.13;;;19.22;46.96
26563;BME280;14217;50.986;5.826;2023-02-19T17:38:50;102024.56;;;19.26;46.85
26563;BME280;14217;50.986;5.826;2023-02-19T17:43:52;102030.81;;;19.25;47.03
26563;BME280;14217;50.986;5.826;2023-02-19T17:48:54;102044.00;;;19.28;47.09
26563;BME280;14217;50.986;5.826;2023-02-19T17:53:56;102044.13;;;19.23;47.17
26563;BME280;14217;50.986;5.826;2023-02-19T17:58:59;102047.66;;;19.24;46.88
26563;BME280;14217;50.986;5.826;2023-02-19T18:04:01;102060.97;;;19.22;46.66
26563;BME280;14217;50.986;5.826;2023-02-19T18:09:03;102061.81;;;19.24;46.76
26563;BME280;14217;50.986;5.826;2023-02-19T18:14:05;102066.38;;;19.19;46.37
26563;BME280;14217;50.986;5.826;2023-02-19T18:19:07;102061.06;;;19.19;46.26
26563;BME280;14217;50.986;5.826;2023-02-19T18:24:09;102061.09;;;19.18;46.54
26563;BME280;14217;50.986;5.826;2023-02-19T18:29:11;102067.19;;;19.23;46.33
26563;BME280;14217;50.986;5.826;2023-02-19T18:34:17;102061.94;;;19.20;46.40
26563;BME280;14217;50.986;5.826;2023-02-19T18:39:20;102058.25;;;19.25;46.10
26563;BME280;14217;50.986;5.826;2023-02-19T18:44:23;102064.13;;;19.37;45.85
26563;BME280;14217;50.986;5.826;2023-02-19T18:49:25;102060.50;;;19.39;45.59
26563;BME280;14217;50.986;5.826;2023-02-19T18:54:28;102071.78;;;19.47;45.35
26563;BME280;14217;50.986;5.826;2023-02-19T18:59:31;102071.19;;;19.38;45.84
26563;BME280;14217;50.986;5.826;2023-02-19T19:04:33;102082.69;;;19.38;45.64
26563;BME280;14217;50.986;5.826;2023-02-19T19:09:35;102072.06;;;19.38;45.71
26563;BME280;14217;50.986;5.826;2023-02-19T19:14:37;102081.81;;;19.38;45.71
26563;BME280;14217;50.986;5.826;2023-02-19T19:19:42;102078.38;;;19.34;45.72
26563;BME280;14217;50.986;5.826;2023-02-19T19:24:45;102088.22;;;19.30;45.85
26563;BME280;14217;50.986;5.826;2023-02-19T19:29:46;102094.34;;;19.33;45.85
26563;BME280;14217;50.986;5.826;2023-02-19T19:34:50;102086.34;;;19.34;45.71
26563;BME280;14217;50.986;5.826;2023-02-19T19:39:52;102088.22;;;19.30;45.79
26563;BME280;14217;50.986;5.826;2023-02-19T19:44:54;102091.69;;;19.33;45.89
26563;BME280;14217;50.986;5.826;2023-02-19T19:49:57;102082.13;;;19.27;45.65
26563;BME280;14217;50.986;5.826;2023-02-19T19:54:59;102100.66;;;19.28;45.86
26563;BME280;14217;50.986;5.826;2023-02-19T20:00:02;102085.53;;;19.30;45.38
26563;BME280;14217;50.986;5.826;2023-02-19T20:05:05;102092.44;;;19.38;45.33
26563;BME280;14217;50.986;5.826;2023-02-19T20:10:07;102103.91;;;19.40;45.41
26563;BME280;14217;50.986;5.826;2023-02-19T20:15:12;102094.97;;;19.42;45.20
26563;BME280;14217;50.986;5.826;2023-02-19T20:20:17;102114.56;;;19.38;45.03
26563;BME280;14217;50.986;5.826;2023-02-19T20:25:21;102100.34;;;19.39;45.07
26563;BME280;14217;50.986;5.826;2023-02-19T20:30:23;102098.53;;;19.41;45.04
26563;BME280;14217;50.986;5.826;2023-02-19T20:35:25;102097.00;;;19.33;45.30
26563;BME280;14217;50.986;5.826;2023-02-19T20:40:29;102098.78;;;19.34;45.05
26563;BME280;14217;50.986;5.826;2023-02-19T20:45:31;102111.25;;;19.30;45.28
26563;BME280;14217;50.986;5.826;2023-02-19T20:50:34;102101.59;;;19.27;45.02
26563;BME280;14217;50.986;5.826;2023-02-19T20:55:36;102121.06;;;19.28;45.16
26563;BME280;14217;50.986;5.826;2023-02-19T21:00:38;102121.84;;;19.32;45.13
26563;BME280;14217;50.986;5.826;2023-02-19T21:05:40;102134.25;;;19.31;44.86
26563;BME280;14217;50.986;5.826;2023-02-19T21:10:46;102130.06;;;19.22;44.95
26563;BME280;14217;50.986;5.826;2023-02-19T21:15:48;102122.06;;;19.24;44.85
26563;BME280;14217;50.986;5.826;2023-02-19T21:20:50;102121.19;;;19.23;45.68
26563;BME280;14217;50.986;5.826;2023-02-19T21:25:52;102125.53;;;19.26;45.52
26563;BME280;14217;50.986;5.826;2023-02-19T21:30:55;102115.03;;;19.21;45.52
26563;BME280;14217;50.986;5.826;2023-02-19T21:35:57;102108.69;;;19.27;45.53
26563;BME280;14217;50.986;5.826;2023-02-19T21:40:59;102115.78;;;19.26;45.55
26563;BME280;14217;50.986;5.826;2023-02-19T21:46:01;102106.91;;;19.27;45.17
26563;BME280;14217;50.986;5.826;2023-02-19T21:51:03;102109.59;;;19.26;45.39
26563;BME280;14217;50.986;5.826;2023-02-19T21:56:05;102110.41;;;19.29;45.17
26563;BME280;14217;50.986;5.826;2023-02-19T22:01:07;102101.63;;;19.26;45.28
26563;BME280;14217;50.986;5.826;2023-02-19T22:06:09;102100.97;;;19.18;45.31
26563;BME280;14217;50.986;5.826;2023-02-19T22:11:12;102110.56;;;19.23;45.29
26563;BME280;14217;50.986;5.826;2023-02-19T22:16:14;102108.72;;;19.25;45.03
26563;BME280;14217;50.986;5.826;2023-02-19T22:21:16;102083.03;;;19.26;44.95
26563;BME280;14217;50.986;5.826;2023-02-19T22:26:22;102075.09;;;19.24;45.17
26563;BME280;14217;50.986;5.826;2023-02-19T22:31:26;102079.50;;;19.25;45.10
26563;BME280;14217;50.986;5.826;2023-02-19T22:36:29;102083.97;;;19.25;44.77
26563;BME280;14217;50.986;5.826;2023-02-19T22:41:32;102099.97;;;19.22;44.85
26563;BME280;14217;50.986;5.826;2023-02-19T22:46:34;102111.53;;;19.21;45.01
26563;BME280;14217;50.986;5.826;2023-02-19T22:51:36;102107.88;;;19.25;44.89
26563;BME280;14217;50.986;5.826;2023-02-19T22:56:38;102112.25;;;19.26;44.76
26563;BME280;14217;50.986;5.826;2023-02-19T23:01:40;102085.66;;;19.27;44.80
26563;BME280;14217;50.986;5.826;2023-02-19T23:06:43;102083.97;;;19.25;44.87
26563;BME280;14217;50.986;5.826;2023-02-19T23:11:46;102084.00;;;19.23;44.65
26563;BME280;14217;50.986;5.826;2023-02-19T23:16:48;102089.19;;;19.26;44.80
26563;BME280;14217;50.986;5.826;2023-02-19T23:21:50;102076.88;;;19.24;44.71
26563;BME280;14217;50.986;5.826;2023-02-19T23:26:53;102075.97;;;19.25;44.55
26563;BME280;14217;50.986;5.826;2023-02-19T23:31:55;102077.69;;;19.27;44.36
26563;BME280;14217;50.986;5.826;2023-02-19T23:36:57;102069.03;;;19.19;44.73
26563;BME280;14217;50.986;5.826;2023-02-19T23:42:02;102062.72;;;19.23;44.63
26563;BME280;14217;50.986;5.826;2023-02-19T23:47:05;102064.47;;;19.24;44.56
26563;BME280;14217;50.986;5.826;2023-02-19T23:52:07;102061.88;;;19.23;44.42
26563;BME280;14217;50.986;5.826;2023-02-19T23:57:09;102054.78;;;19.22;44.79
